Time;durP1;ratioP1;P1;durP2;ratioP2;P2;SDS_P1;SDS_P2;PMS_P1;PMS_P2;Temp;Humidity;BMP_temperature;BMP_pressure;BME280_temperature;BME280_humidity;BME280_pressure;Samples;Min_cycle;Max_cycle;Signal;HPM_P1;HPM_P2
2022/08/23 00:01:41;;;;;;;3.15;2.08;;;16.90;99.90;;;;;;5025371;28;20049;-74
2022/08/23 00:04:10;;;;;;;2.75;2.50;;;16.80;99.90;;;;;;5024181;28;20044;-74
2022/08/23 00:06:36;;;;;;;4.95;2.90;;;16.70;99.90;;;;;;5013690;28;20354;-74
2022/08/23 00:09:04;;;;;;;3.63;3.10;;;16.60;99.90;;;;;;5007739;28;20052;-74
2022/08/23 00:11:39;;;;;;;7.22;4.20;;;16.60;99.90;;;;;;5011824;28;20046;-74
2022/08/23 00:14:12;;;;;;;10.52;6.07;;;16.50;99.90;;;;;;5027023;28;20041;-74
2022/08/23 00:16:39;;;;;;;12.57;7.40;;;16.50;99.90;;;;;;5023533;28;20045;-74
2022/08/23 00:19:07;;;;;;;11.13;7.70;;;16.50;99.90;;;;;;5021600;28;20498;-74
2022/08/23 00:21:35;;;;;;;12.88;7.80;;;16.50;99.90;;;;;;5004233;28;20048;-74
2022/08/23 00:24:02;;;;;;;6.90;5.57;;;16.50;99.90;;;;;;5012099;28;20463;-75
2022/08/23 00:26:48;;;;;;;16.50;6.50;;;16.40;99.90;;;;;;5012825;28;20068;-74
2022/08/23 00:29:14;;;;;;;64.72;8.02;;;16.40;99.90;;;;;;5025214;28;20124;-74
2022/08/23 00:31:40;;;;;;;11.05;7.50;;;16.40;99.90;;;;;;5009052;28;20389;-74
2022/08/23 00:34:06;;;;;;;12.73;6.63;;;16.40;99.90;;;;;;5030870;28;20045;-74
2022/08/23 00:36:32;;;;;;;12.48;7.82;;;16.40;99.90;;;;;;5027422;28;20085;-74
2022/08/23 00:38:58;;;;;;;11.32;7.07;;;16.40;99.90;;;;;;5011332;28;20398;-74
2022/08/23 00:41:32;;;;;;;8.02;5.55;;;16.40;99.90;;;;;;5001692;28;20061;-74
2022/08/23 00:49:34;;;;;;;5.40;4.75;;;16.20;99.90;;;;;;5023592;28;20057;-74
2022/08/23 00:52:13;;;;;;;5.57;4.78;;;16.20;99.90;;;;;;5022688;28;20107;-74
2022/08/23 00:54:40;;;;;;;7.80;5.50;;;16.20;99.90;;;;;;5028412;28;20563;-74
2022/08/23 00:57:12;;;;;;;17.58;3.65;;;16.20;99.90;;;;;;5010775;28;20053;-74
2022/08/23 00:59:38;;;;;;;3.47;2.72;;;16.20;99.90;;;;;;5043357;28;20042;-75
2022/08/23 01:02:04;;;;;;;8.70;6.13;;;16.10;99.90;;;;;;5010952;28;20063;-74
2022/08/23 01:04:35;;;;;;;8.48;5.70;;;16.10;99.90;;;;;;5024176;28;21614;-74
2022/08/23 01:07:08;;;;;;;6.18;4.72;;;16.10;99.90;;;;;;5007732;28;20544;-74
2022/08/23 01:09:36;;;;;;;8.82;5.68;;;16.20;99.90;;;;;;5007526;28;20731;-74
2022/08/23 01:12:09;;;;;;;9.40;5.90;;;16.20;99.90;;;;;;5014874;28;20405;-74
2022/08/23 01:14:56;;;;;;;8.82;6.38;;;16.30;99.90;;;;;;5026963;28;20049;-74
2022/08/23 01:17:46;;;;;;;8.20;6.80;;;16.30;99.90;;;;;;5027690;28;20117;-75
2022/08/23 01:20:16;;;;;;;10.90;7.80;;;16.40;99.90;;;;;;5029038;28;20053;-74
2022/08/23 01:23:06;;;;;;;11.50;8.15;;;16.40;99.90;;;;;;5009025;28;20393;-74
2022/08/23 01:25:33;;;;;;;11.40;6.93;;;16.40;99.90;;;;;;5029232;28;20435;-74
2022/08/23 01:27:59;;;;;;;12.13;8.15;;;16.30;99.90;;;;;;5009958;28;20124;-74
2022/08/23 01:30:30;;;;;;;9.75;7.43;;;16.30;99.90;;;;;;5014932;28;20053;-74
2022/08/23 01:32:59;;;;;;;5.43;4.93;;;16.30;99.90;;;;;;5014444;28;20140;-74
2022/08/23 01:35:35;;;;;;;10.93;8.25;;;16.20;99.90;;;;;;5030669;28;20087;-74
2022/08/23 01:38:01;;;;;;;5.63;5.13;;;16.20;99.90;;;;;;5025978;28;20048;-74
2022/08/23 01:40:27;;;;;;;5.70;5.10;;;16.20;99.90;;;;;;5026829;28;20049;-74
2022/08/23 01:42:53;;;;;;;8.25;6.63;;;16.10;99.90;;;;;;5000178;28;20464;-74
2022/08/23 01:45:19;;;;;;;7.95;7.05;;;16.10;99.90;;;;;;5033520;28;20072;-74
2022/08/23 01:47:45;;;;;;;12.18;8.02;;;16.10;99.90;;;;;;5018628;28;20041;-74
2022/08/23 01:50:12;;;;;;;10.32;8.05;;;16.10;99.90;;;;;;5034089;28;20048;-74
2022/08/23 01:52:40;;;;;;;11.45;8.18;;;16.00;99.90;;;;;;5034284;28;20037;-74
2022/08/23 01:55:06;;;;;;;13.02;9.60;;;16.00;99.90;;;;;;5033595;28;20052;-74
2022/08/23 01:57:32;;;;;;;7.47;6.70;;;16.10;99.90;;;;;;5033018;28;20041;-74
2022/08/23 01:59:58;;;;;;;9.30;6.97;;;16.00;99.90;;;;;;5017679;28;20085;-74
2022/08/23 02:02:24;;;;;;;9.75;8.27;;;16.00;99.90;;;;;;5016762;28;20406;-74
2022/08/23 02:04:51;;;;;;;6.38;5.30;;;16.00;99.90;;;;;;5017046;28;20064;-74
2022/08/23 02:07:19;;;;;;;5.85;4.90;;;15.90;99.90;;;;;;5016685;28;20044;-74
2022/08/23 02:09:45;;;;;;;4.18;3.75;;;15.90;99.90;;;;;;5017650;28;20046;-74
2022/08/23 02:12:11;;;;;;;6.88;5.82;;;15.80;99.90;;;;;;5033897;28;20045;-74
2022/08/23 02:14:40;;;;;;;10.45;6.93;;;15.80;99.90;;;;;;5016706;28;20183;-74
2022/08/23 02:17:06;;;;;;;10.95;7.78;;;15.80;99.90;;;;;;5031192;28;20046;-74
2022/08/23 02:19:33;;;;;;;9.00;6.10;;;15.80;99.90;;;;;;5016960;28;20049;-74
2022/08/23 02:22:00;;;;;;;5.30;4.38;;;15.90;99.90;;;;;;5025962;28;20049;-74
2022/08/23 02:24:26;;;;;;;5.55;4.47;;;15.80;99.90;;;;;;5014001;28;20041;-74
2022/08/23 02:26:58;;;;;;;5.75;4.47;;;15.80;99.90;;;;;;5000992;28;20046;-74
2022/08/23 02:29:28;;;;;;;5.95;5.35;;;15.70;99.90;;;;;;5028412;28;20128;-74
2022/08/23 02:31:54;;;;;;;9.63;7.32;;;15.70;99.90;;;;;;4997508;28;20156;-74
2022/08/23 02:34:20;;;;;;;5.40;4.72;;;15.80;99.90;;;;;;4997169;28;20372;-74
2022/08/23 02:36:46;;;;;;;7.15;5.85;;;15.70;99.90;;;;;;5016456;28;20047;-74
2022/08/23 02:39:14;;;;;;;3.60;3.30;;;15.70;99.90;;;;;;5029074;28;20056;-74
2022/08/23 02:41:40;;;;;;;5.80;5.20;;;15.60;99.90;;;;;;5027068;28;20041;-73
2022/08/23 02:44:06;;;;;;;8.38;6.63;;;15.60;99.90;;;;;;5012817;28;20053;-73
2022/08/23 02:46:32;;;;;;;6.63;5.20;;;15.60;99.90;;;;;;5018422;28;20049;-74
2022/08/23 02:48:58;;;;;;;7.88;5.55;;;15.60;99.90;;;;;;5020742;28;20041;-74
2022/08/23 02:51:25;;;;;;;139.02;6.03;;;15.60;99.90;;;;;;5032898;28;20045;-74
2022/08/23 02:53:51;;;;;;;4.32;3.30;;;15.40;99.90;;;;;;5032353;28;20048;-74
2022/08/23 02:56:16;;;;;;;15.30;5.35;;;15.40;99.90;;;;;;5029636;28;20137;-74
2022/08/23 02:58:44;;;;;;;10.82;7.63;;;15.40;99.90;;;;;;4996924;28;20472;-74
2022/08/23 03:01:24;;;;;;;5.18;4.05;;;15.40;99.90;;;;;;5012813;28;20053;-74
2022/08/23 03:03:50;;;;;;;6.07;5.43;;;15.40;99.90;;;;;;5021171;28;20080;-74
2022/08/23 03:06:17;;;;;;;7.13;5.53;;;15.40;99.90;;;;;;5031190;28;20038;-74
2022/08/23 03:08:44;;;;;;;7.68;5.25;;;15.30;99.90;;;;;;5031952;28;20049;-74
2022/08/23 03:11:20;;;;;;;8.75;5.88;;;15.30;99.90;;;;;;5032869;28;20041;-74
2022/08/23 03:13:47;;;;;;;9.10;6.95;;;15.40;99.90;;;;;;5031262;28;20052;-74
2022/08/23 03:16:14;;;;;;;7.05;5.88;;;15.40;99.90;;;;;;5014975;28;20053;-74
2022/08/23 03:18:40;;;;;;;5.57;4.80;;;15.30;99.90;;;;;;5032693;28;20041;-74
2022/08/23 03:21:07;;;;;;;4.95;4.45;;;15.30;99.90;;;;;;5031751;28;20044;-74
2022/08/23 03:23:34;;;;;;;7.63;4.43;;;15.30;99.90;;;;;;5015347;28;20110;-74
2022/08/23 03:26:02;;;;;;;32.38;3.30;;;15.30;99.90;;;;;;5030714;28;20085;-74
2022/08/23 03:28:29;;;;;;;2.50;2.30;;;15.20;99.90;;;;;;5032451;28;20482;-74
2022/08/23 03:30:55;;;;;;;3.22;2.60;;;15.20;99.90;;;;;;5028267;28;20041;-74
2022/08/23 03:33:22;;;;;;;4.30;3.42;;;15.10;99.90;;;;;;5031557;28;20092;-74
2022/08/23 03:35:48;;;;;;;3.80;3.50;;;15.10;99.90;;;;;;5031601;28;20091;-74
2022/08/23 03:38:15;;;;;;;3.00;2.80;;;15.10;99.90;;;;;;5041118;28;20092;-74
2022/08/23 03:40:42;;;;;;;3.10;2.72;;;15.10;99.90;;;;;;5014648;28;20041;-74
2022/08/23 03:43:09;;;;;;;11.30;3.90;;;15.10;99.90;;;;;;5032776;28;20045;-74
2022/08/23 03:45:35;;;;;;;8.98;3.63;;;15.10;99.90;;;;;;5031950;28;20045;-74
2022/08/23 03:48:00;;;;;;;6.57;3.63;;;15.00;99.90;;;;;;4998816;28;20053;-74
2022/08/23 03:50:26;;;;;;;7.20;5.32;;;15.00;99.90;;;;;;5031345;28;20034;-74
2022/08/23 03:52:52;;;;;;;8.80;5.63;;;15.00;99.90;;;;;;5030233;28;20049;-74
2022/08/23 03:55:18;;;;;;;11.98;7.03;;;15.00;99.90;;;;;;4998933;28;20034;-74
2022/08/23 03:57:44;;;;;;;8.20;6.70;;;15.00;99.90;;;;;;5031929;28;20091;-74
2022/08/23 04:00:13;;;;;;;97.18;8.65;;;15.00;99.90;;;;;;5031777;28;20180;-74
2022/08/23 04:02:39;;;;;;;125.30;9.98;;;14.90;99.90;;;;;;5014971;28;20049;-73
2022/08/23 04:05:07;;;;;;;13.35;5.45;;;14.80;99.90;;;;;;5032073;28;20076;-73
2022/08/23 04:07:34;;;;;;;7.75;6.30;;;14.80;99.90;;;;;;5030200;28;20133;-74
2022/08/23 04:10:01;;;;;;;7.85;6.50;;;14.90;99.90;;;;;;5031753;28;20052;-74
2022/08/23 04:12:27;;;;;;;10.40;7.68;;;14.90;99.90;;;;;;5015081;28;20482;-74
2022/08/23 04:14:54;;;;;;;9.40;7.93;;;14.90;99.90;;;;;;5031806;28;20395;-73
2022/08/23 04:17:20;;;;;;;14.80;10.82;;;15.00;99.90;;;;;;5014986;28;20041;-73
2022/08/23 04:19:47;;;;;;;10.98;8.95;;;15.00;99.90;;;;;;5014446;28;20056;-74
2022/08/23 04:22:15;;;;;;;11.40;9.25;;;15.10;99.90;;;;;;5029582;28;20474;-74
2022/08/23 04:24:42;;;;;;;14.75;9.35;;;15.10;99.90;;;;;;5031081;28;20140;-74
2022/08/23 04:27:08;;;;;;;16.30;9.00;;;15.10;99.90;;;;;;5013907;28;20041;-74
2022/08/23 04:29:34;;;;;;;13.70;10.32;;;15.10;99.90;;;;;;5031035;28;20106;-74
2022/08/23 04:32:03;;;;;;;16.38;10.30;;;15.20;99.90;;;;;;5031517;28;20045;-74
2022/08/23 04:34:29;;;;;;;14.07;10.98;;;15.20;99.90;;;;;;5031561;28;20046;-74
2022/08/23 04:36:55;;;;;;;20.02;15.43;;;15.20;99.90;;;;;;5009821;28;20038;-74
2022/08/23 04:39:21;;;;;;;18.95;13.50;;;15.20;99.90;;;;;;5011960;28;20077;-74
2022/08/23 04:44:31;;;;;;;21.17;15.75;;;15.20;99.90;;;;;;5011937;28;20084;-74
2022/08/23 04:46:56;;;;;;;21.75;15.63;;;15.30;99.90;;;;;;4995227;28;20109;-74
2022/08/23 04:49:23;;;;;;;19.52;13.95;;;15.30;99.90;;;;;;5028725;28;20049;-73
2022/08/23 04:51:49;;;;;;;26.65;19.13;;;15.40;99.90;;;;;;5030268;28;20090;-74
2022/08/23 04:54:15;;;;;;;27.30;20.08;;;15.50;99.90;;;;;;5031227;28;20048;-74
2022/08/23 04:56:41;;;;;;;28.45;20.70;;;15.50;99.90;;;;;;5031182;28;20044;-74
2022/08/23 04:59:08;;;;;;;24.35;18.55;;;15.60;99.90;;;;;;5031408;28;20045;-74
2022/08/23 05:01:34;;;;;;;25.65;18.65;;;15.70;99.90;;;;;;5030993;28;20104;-73
2022/08/23 05:04:01;;;;;;;25.58;19.05;;;15.70;99.90;;;;;;5034599;28;20037;-74
2022/08/23 05:06:28;;;;;;;20.50;16.52;;;15.80;99.90;;;;;;5033993;28;20117;-74
2022/08/23 05:08:54;;;;;;;17.42;12.43;;;15.80;99.90;;;;;;5018667;28;20381;-74
2022/08/23 05:11:21;;;;;;;23.52;18.85;;;15.70;99.90;;;;;;5035140;28;20052;-74
2022/08/23 05:13:47;;;;;;;20.38;16.85;;;15.70;99.90;;;;;;5035324;28;20049;-73
2022/08/23 05:16:13;;;;;;;24.25;18.23;;;15.80;99.90;;;;;;5018964;28;20041;-73
2022/08/23 05:18:39;;;;;;;26.70;20.30;;;15.80;99.90;;;;;;5035380;28;20045;-73
2022/08/23 05:21:06;;;;;;;21.15;16.92;;;15.80;99.90;;;;;;5017274;28;20048;-74
2022/08/23 05:23:32;;;;;;;26.45;19.42;;;15.90;99.90;;;;;;5034686;28;20386;-73
2022/08/23 05:25:58;;;;;;;25.60;19.83;;;16.00;99.90;;;;;;5035225;28;20049;-73
2022/08/23 05:28:31;;;;;;;22.92;19.45;;;16.00;99.90;;;;;;5035205;28;20410;-73
2022/08/23 05:31:02;;;;;;;25.38;20.42;;;16.10;99.90;;;;;;5035187;28;20458;-73
2022/08/23 05:33:28;;;;;;;27.97;22.47;;;16.20;99.90;;;;;;5017495;28;20037;-73
2022/08/23 05:35:55;;;;;;;30.10;23.60;;;16.30;99.90;;;;;;5034065;28;20068;-73
2022/08/23 05:38:21;;;;;;;28.08;21.15;;;16.50;99.90;;;;;;5035168;28;20103;-73
2022/08/23 05:40:56;;;;;;;25.70;21.05;;;16.60;99.90;;;;;;5034860;28;20049;-73
2022/08/23 05:43:24;;;;;;;22.05;18.70;;;16.80;99.90;;;;;;5034265;28;20049;-73
2022/08/23 05:46:03;;;;;;;25.83;20.17;;;17.00;99.90;;;;;;5034855;28;20046;-73
2022/08/23 05:48:30;;;;;;;25.67;20.48;;;17.10;99.90;;;;;;5034187;28;20045;-73
2022/08/23 05:50:57;;;;;;;24.85;20.73;;;17.20;99.90;;;;;;5017906;28;20080;-73
2022/08/23 05:53:23;;;;;;;25.17;21.55;;;17.40;99.90;;;;;;5034727;28;20045;-73
2022/08/23 05:55:49;;;;;;;22.38;18.73;;;17.60;99.90;;;;;;5034002;28;20038;-73
2022/08/23 05:58:15;;;;;;;22.35;19.98;;;17.70;99.90;;;;;;5018189;28;20492;-73
2022/08/23 06:00:42;;;;;;;25.48;19.30;;;17.90;99.90;;;;;;5017922;28;20041;-74
2022/08/23 06:03:08;;;;;;;21.75;19.20;;;18.00;99.90;;;;;;5033877;28;20070;-74
2022/08/23 06:05:39;;;;;;;22.58;20.35;;;18.10;99.90;;;;;;5017433;28;20450;-73
2022/08/23 06:08:05;;;;;;;22.20;17.83;;;18.30;99.90;;;;;;5034122;28;20063;-74
2022/08/23 06:10:31;;;;;;;27.30;18.73;;;18.40;99.90;;;;;;5017346;28;20541;-74
2022/08/23 06:12:56;;;;;;;20.08;17.02;;;18.50;99.90;;;;;;5032040;28;20058;-74
2022/08/23 06:15:22;;;;;;;18.92;16.38;;;18.70;99.90;;;;;;5032814;28;20125;-74
2022/08/23 06:17:48;;;;;;;18.85;16.50;;;18.80;99.90;;;;;;5033754;28;20124;-74
2022/08/23 06:20:14;;;;;;;17.65;15.40;;;18.90;99.90;;;;;;5033880;28;20042;-74
2022/08/23 06:22:40;;;;;;;16.92;15.23;;;19.00;99.90;;;;;;5017849;28;20045;-74
2022/08/23 06:25:07;;;;;;;16.92;14.60;;;19.10;99.90;;;;;;5033321;28;20371;-74
2022/08/23 06:27:32;;;;;;;15.60;14.10;;;19.20;99.90;;;;;;5034221;28;20084;-74
2022/08/23 06:29:58;;;;;;;16.85;14.50;;;19.30;99.90;;;;;;5017323;28;20099;-74
2022/08/23 06:32:24;;;;;;;16.45;14.25;;;19.40;99.90;;;;;;5016440;28;20041;-73
2022/08/23 06:34:50;;;;;;;17.63;14.38;;;19.50;99.90;;;;;;4985056;28;20367;-74
2022/08/23 06:37:16;;;;;;;16.55;14.65;;;19.50;99.90;;;;;;5015268;28;20067;-74
2022/08/23 06:39:42;;;;;;;15.02;13.43;;;19.60;99.90;;;;;;5032255;28;20053;-74
2022/08/23 06:42:11;;;;;;;16.20;13.73;;;19.70;99.90;;;;;;5033797;28;20041;-74
2022/08/23 06:44:37;;;;;;;19.60;13.30;;;19.80;99.90;;;;;;5033159;28;20033;-74
2022/08/23 06:47:05;;;;;;;15.30;13.63;;;19.90;99.90;;;;;;5033565;28;20500;-74
2022/08/23 06:49:31;;;;;;;17.48;14.35;;;20.00;99.90;;;;;;5033752;28;20046;-73
2022/08/23 06:51:59;;;;;;;14.98;13.40;;;20.10;99.90;;;;;;5033696;28;20056;-73
2022/08/23 06:54:27;;;;;;;16.58;13.23;;;20.20;99.90;;;;;;5032941;28;20493;-73
2022/08/23 06:56:54;;;;;;;14.00;12.50;;;20.20;99.90;;;;;;5032986;28;20443;-73
2022/08/23 06:59:20;;;;;;;14.60;12.10;;;20.20;99.90;;;;;;5033598;28;20128;-73
2022/08/23 07:01:57;;;;;;;17.35;12.25;;;20.30;99.90;;;;;;5032220;28;20128;-73
2022/08/23 07:04:32;;;;;;;14.60;13.05;;;20.30;99.90;;;;;;5016678;28;20157;-73
2022/08/23 07:07:00;;;;;;;13.82;11.98;;;20.40;99.90;;;;;;5032514;28;20044;-73
2022/08/23 07:09:27;;;;;;;16.60;12.63;;;20.50;99.90;;;;;;5017215;28;20064;-73
2022/08/23 07:11:54;;;;;;;13.60;12.18;;;20.60;99.90;;;;;;5029350;28;20052;-73
2022/08/23 07:14:21;;;;;;;16.02;11.48;;;20.60;99.90;;;;;;5033274;28;20044;-73
2022/08/23 07:16:54;;;;;;;13.60;11.13;;;20.80;99.90;;;;;;5015107;28;20453;-73
2022/08/23 07:19:23;;;;;;;14.40;10.50;;;20.90;99.90;;;;;;5033035;28;20124;-74
2022/08/23 07:21:49;;;;;;;14.55;10.38;;;20.80;99.90;;;;;;5032524;28;20493;-73
2022/08/23 07:24:17;;;;;;;12.25;9.43;;;21.20;99.90;;;;;;5033079;28;20053;-73
2022/08/23 07:26:44;;;;;;;11.30;9.27;;;21.30;99.90;;;;;;5030832;28;20053;-73
2022/08/23 07:29:11;;;;;;;12.90;9.50;;;21.50;99.90;;;;;;5032923;28;20072;-73
2022/08/23 07:31:50;;;;;;;10.82;9.05;;;21.60;99.90;;;;;;5030256;28;20439;-73
2022/08/23 07:34:17;;;;;;;10.52;8.50;;;21.70;99.90;;;;;;5024753;28;20037;-73
2022/08/23 07:36:45;;;;;;;10.27;8.07;;;21.80;99.90;;;;;;5029727;28;20116;-73
2022/08/23 07:39:12;;;;;;;9.55;8.23;;;21.90;99.90;;;;;;5032799;28;20489;-73
2022/08/23 07:41:38;;;;;;;11.30;8.63;;;22.00;99.90;;;;;;5014588;28;20049;-73
2022/08/23 07:44:07;;;;;;;10.00;7.53;;;22.20;99.90;;;;;;5028784;28;20041;-73
2022/08/23 07:46:34;;;;;;;9.15;7.78;;;22.20;99.90;;;;;;5031808;28;20041;-74
2022/08/23 07:49:01;;;;;;;8.57;7.68;;;22.30;99.90;;;;;;5032149;28;20044;-73
2022/08/23 07:51:29;;;;;;;12.00;7.60;;;22.50;99.90;;;;;;5029818;28;20046;-73
2022/08/23 07:53:55;;;;;;;8.15;7.35;;;22.60;99.90;;;;;;5028814;28;20104;-73
2022/08/23 07:56:21;;;;;;;9.85;7.47;;;22.60;99.90;;;;;;5031254;28;20049;-73
2022/08/23 07:58:47;;;;;;;8.65;7.22;;;22.80;99.90;;;;;;5014100;28;20543;-73
2022/08/23 08:01:15;;;;;;;12.10;7.25;;;22.90;99.90;;;;;;5031008;28;20056;-73
2022/08/23 08:03:46;;;;;;;7.75;6.75;;;23.00;99.90;;;;;;5031445;28;20173;-73
2022/08/23 08:06:24;;;;;;;9.10;8.18;;;23.00;99.90;;;;;;5011986;28;20045;-73
2022/08/23 08:08:50;;;;;;;12.15;7.40;;;23.20;99.90;;;;;;4999044;28;20041;-74
2022/08/23 08:11:20;;;;;;;9.18;7.47;;;23.30;99.90;;;;;;5031866;28;20510;-73
2022/08/23 08:13:48;;;;;;;11.70;7.70;;;23.40;99.90;;;;;;5017372;28;20390;-73
2022/08/23 08:16:27;;;;;;;8.85;8.02;;;23.50;99.90;;;;;;5020293;28;20041;-73
2022/08/23 08:18:59;;;;;;;9.55;7.43;;;23.70;99.90;;;;;;5032066;28;20128;-73
2022/08/23 08:21:26;;;;;;;13.75;7.40;;;23.80;99.90;;;;;;5030783;28;20440;-73
2022/08/23 08:23:52;;;;;;;6.43;5.88;;;23.90;99.90;;;;;;5015630;28;20138;-73
2022/08/23 08:26:19;;;;;;;6.75;6.10;;;24.00;99.90;;;;;;5027092;28;20041;-74
2022/08/23 08:28:46;;;;;;;8.30;6.43;;;24.10;99.90;;;;;;5031668;28;20053;-74
2022/08/23 08:31:12;;;;;;;9.15;6.53;;;24.10;99.90;;;;;;5030512;28;20037;-74
2022/08/23 08:33:39;;;;;;;8.80;6.72;;;24.10;99.90;;;;;;5014158;28;20041;-74
2022/08/23 08:36:06;;;;;;;10.27;6.57;;;24.20;99.90;;;;;;5011227;28;20041;-74
2022/08/23 08:38:33;;;;;;;9.30;6.20;;;24.30;99.90;;;;;;5008775;28;20042;-74
2022/08/23 08:41:24;;;;;;;10.02;6.75;;;24.50;99.90;;;;;;5010155;28;20056;-74
2022/08/23 08:44:09;;;;;;;7.10;6.38;;;24.60;99.90;;;;;;5047229;28;20045;-74
2022/08/23 08:46:52;;;;;;;8.05;6.43;;;24.70;99.90;;;;;;5030867;28;20174;-74
2022/08/23 08:49:48;;;;;;;10.43;6.05;;;24.80;99.90;;;;;;5015141;28;20612;-74
2022/08/23 08:52:21;;;;;;;6.93;6.20;;;24.90;99.90;;;;;;5015257;28;20087;-73
2022/08/23 08:54:49;;;;;;;6.47;5.63;;;25.10;99.90;;;;;;5031527;28;20033;-74
2022/08/23 08:57:18;;;;;;;12.75;5.85;;;25.30;99.90;;;;;;5010613;28;20052;-74
2022/08/23 08:59:56;;;;;;;6.55;5.70;;;25.40;99.90;;;;;;5014967;28;20554;-73
2022/08/23 09:02:28;;;;;;;8.90;6.00;;;25.50;99.90;;;;;;5031141;28;20501;-74
2022/08/23 09:04:54;;;;;;;6.63;5.30;;;25.70;99.90;;;;;;5031497;28;20079;-74
2022/08/23 09:07:31;;;;;;;7.40;5.75;;;25.80;99.90;;;;;;5014139;28;20038;-74
2022/08/23 09:10:32;;;;;;;6.05;5.38;;;25.80;99.90;;;;;;5014885;28;20049;-74
2022/08/23 09:13:12;;;;;;;;;;;25.90;99.90;;;;;;5009269;28;20092;-74
2022/08/23 09:15:47;;;;;;;6.75;5.82;;;25.90;99.90;;;;;;5031512;28;19924;-74
2022/08/23 09:18:15;;;;;;;7.88;5.72;;;25.90;99.90;;;;;;5031482;28;20115;-74
2022/08/23 09:20:51;;;;;;;6.53;5.68;;;26.10;99.90;;;;;;5030190;28;20813;-74
2022/08/23 09:23:25;;;;;;;6.97;5.70;;;26.20;99.90;;;;;;5031429;28;20081;-74
2022/08/23 09:26:03;;;;;;;6.57;5.18;;;26.10;99.90;;;;;;5031316;28;20543;-74
2022/08/23 09:28:35;;;;;;;7.38;5.00;;;26.00;99.90;;;;;;5031354;28;20551;-73
2022/08/23 09:31:02;;;;;;;5.95;5.35;;;26.00;99.90;;;;;;5031367;28;20355;-74
2022/08/23 09:33:48;;;;;;;10.18;6.20;;;26.00;99.90;;;;;;5031195;28;20045;-74
2022/08/23 09:36:21;;;;;;;5.88;4.82;;;26.00;99.90;;;;;;5014189;28;20076;-74
2022/08/23 09:38:55;;;;;;;5.80;5.20;;;26.10;99.90;;;;;;5031087;28;20049;-74
2022/08/23 09:41:27;;;;;;;9.80;6.40;;;26.20;99.90;;;;;;5014650;28;20041;-74
2022/08/23 09:43:54;;;;;;;7.55;5.60;;;26.30;99.90;;;;;;5031321;28;20077;-74
2022/08/23 09:46:26;;;;;;;5.72;5.13;;;26.30;99.90;;;;;;5015041;28;20045;-73
2022/08/23 09:48:57;;;;;;;7.07;4.80;;;26.10;99.90;;;;;;5031049;28;20143;-74
2022/08/23 09:51:29;;;;;;;9.07;5.20;;;26.30;99.90;;;;;;5016890;28;20041;-74
2022/08/23 09:54:19;;;;;;;9.77;5.05;;;26.50;99.90;;;;;;5034333;28;20099;-74
2022/08/23 09:56:55;;;;;;;7.35;4.47;;;26.90;98.50;;;;;;5034408;28;20132;-74
2022/08/23 09:59:24;;;;;;;8.05;5.18;;;27.10;98.10;;;;;;5034622;28;20474;-73
2022/08/23 10:01:52;;;;;;;8.13;4.70;;;27.40;97.50;;;;;;5034257;28;20064;-73
2022/08/23 10:04:42;;;;;;;8.25;5.05;;;27.70;96.40;;;;;;5034652;28;20088;-74
2022/08/23 10:07:42;;;;;;;6.97;4.80;;;27.90;94.30;;;;;;5031031;28;20046;-73
2022/08/23 10:10:45;;;;;;;6.85;4.95;;;28.20;94.10;;;;;;5003466;28;20052;-73
2022/08/23 10:13:11;;;;;;;5.18;3.80;;;28.60;95.00;;;;;;5014382;28;20046;-73
2022/08/23 10:15:50;;;;;;;7.57;4.20;;;28.70;93.10;;;;;;5013048;28;20049;-74
2022/08/23 10:18:25;;;;;;;6.32;4.03;;;28.80;85.70;;;;;;5033936;28;20051;-73
2022/08/23 10:21:04;;;;;;;6.13;3.40;;;28.90;87.10;;;;;;5032829;28;20041;-74
2022/08/23 10:23:32;;;;;;;5.35;4.00;;;28.90;83.30;;;;;;5017697;28;20047;-74
2022/08/23 10:25:58;;;;;;;10.05;4.13;;;29.00;85.20;;;;;;5033940;28;20081;-74
2022/08/23 10:32:20;;;;;;;5.70;3.80;;;29.30;78.20;;;;;;5033923;28;20163;-74
2022/08/23 10:35:07;;;;;;;6.40;4.55;;;29.30;78.80;;;;;;5033143;28;20482;-74
2022/08/23 10:38:04;;;;;;;7.00;3.85;;;29.30;80.70;;;;;;5017363;28;20061;-74
2022/08/23 10:41:00;;;;;;;5.90;4.10;;;29.30;77.90;;;;;;5017199;28;20044;-73
2022/08/23 10:43:38;;;;;;;7.38;4.22;;;29.50;79.00;;;;;;5033895;28;20049;-73
2022/08/23 10:46:07;;;;;;;6.60;3.97;;;29.60;75.60;;;;;;5017039;28;20037;-73
2022/08/23 10:48:57;;;;;;;4.18;3.60;;;29.70;78.00;;;;;;5016599;28;20469;-74
2022/08/23 10:51:24;;;;;;;5.57;3.50;;;29.70;74.80;;;;;;5016616;28;21570;-74
2022/08/23 10:54:33;;;;;;;4.95;3.40;;;29.70;77.00;;;;;;5033258;28;20471;-74
2022/08/23 10:57:00;;;;;;;7.78;3.97;;;29.90;74.80;;;;;;5033098;28;20121;-74
2022/08/23 10:59:28;;;;;;;5.60;3.60;;;30.00;76.40;;;;;;5033588;28;20450;-73
2022/08/23 11:02:01;;;;;;;7.63;3.45;;;30.10;75.30;;;;;;5032723;28;20061;-74
2022/08/23 11:04:52;;;;;;;6.47;3.40;;;30.20;73.90;;;;;;5032550;28;20108;-74
2022/08/23 11:07:30;;;;;;;5.57;4.05;;;30.10;71.30;;;;;;5033235;28;20060;-73
2022/08/23 11:10:16;;;;;;;6.43;3.88;;;30.20;72.60;;;;;;5033011;28;20099;-73
2022/08/23 11:12:56;;;;;;;8.10;4.20;;;30.10;72.20;;;;;;5033201;28;20046;-74
2022/08/23 11:15:37;;;;;;;7.32;3.80;;;29.90;69.80;;;;;;5033352;28;20053;-74
2022/08/23 11:18:07;;;;;;;4.07;3.63;;;30.00;73.20;;;;;;5015807;28;20041;-73
2022/08/23 11:20:48;;;;;;;7.00;3.85;;;30.10;71.40;;;;;;5016304;28;20037;-73
2022/08/23 11:23:33;;;;;;;5.05;3.35;;;29.90;69.70;;;;;;5032994;28;20046;-74
2022/08/23 11:26:00;;;;;;;6.90;3.72;;;29.90;69.70;;;;;;5032633;28;20048;-74
2022/08/23 11:28:26;;;;;;;5.13;3.25;;;30.00;70.60;;;;;;5016565;28;20057;-73
2022/08/23 11:30:56;;;;;;;5.55;3.42;;;30.10;70.50;;;;;;5032873;28;20045;-73
2022/08/23 11:33:48;;;;;;;6.22;3.58;;;30.20;68.30;;;;;;5032305;28;20493;-74
2022/08/23 11:36:23;;;;;;;6.13;3.65;;;30.20;66.90;;;;;;5011869;28;20057;-74
2022/08/23 11:38:49;;;;;;;5.70;3.95;;;30.40;68.10;;;;;;5032819;28;20106;-74
2022/08/23 11:41:18;;;;;;;6.88;4.10;;;30.40;67.40;;;;;;5032541;28;20041;-74
2022/08/23 11:44:12;;;;;;;5.75;3.80;;;30.30;68.80;;;;;;5032480;28;20045;-73
2022/08/23 11:46:54;;;;;;;5.68;3.63;;;30.70;66.70;;;;;;5015526;28;20452;-73
2022/08/23 11:49:29;;;;;;;5.90;3.60;;;30.60;65.00;;;;;;5015488;28;20532;-74
2022/08/23 11:51:57;;;;;;;6.43;3.35;;;30.80;63.20;;;;;;5032403;28;20057;-74
2022/08/23 11:54:32;;;;;;;5.88;3.90;;;30.90;65.00;;;;;;5032480;28;20049;-74
2022/08/23 11:57:07;;;;;;;8.05;3.70;;;31.00;65.20;;;;;;5015828;28;20096;-74
2022/08/23 11:59:46;;;;;;;6.63;3.40;;;31.10;64.30;;;;;;5032438;28;20041;-73
2022/08/23 12:02:35;;;;;;;4.32;3.05;;;31.40;64.60;;;;;;5031401;28;20124;-74
2022/08/23 12:05:19;;;;;;;6.20;3.47;;;31.40;60.70;;;;;;5015077;28;20045;-74
2022/08/23 12:08:21;;;;;;;6.95;3.55;;;31.60;64.40;;;;;;5032051;28;20037;-73
2022/08/23 12:10:47;;;;;;;5.45;3.38;;;32.00;61.30;;;;;;5031501;28;20045;-74
2022/08/23 12:13:19;;;;;;;15.77;3.95;;;32.20;63.00;;;;;;5031545;28;20656;-73
2022/08/23 12:16:13;;;;;;;13.95;3.28;;;32.30;59.00;;;;;;5031670;28;20037;-73
2022/08/23 12:18:43;;;;;;;4.60;2.92;;;32.60;57.30;;;;;;5031005;28;20044;-74
2022/08/23 12:21:30;;;;;;;5.70;3.15;;;32.80;59.30;;;;;;5015008;28;20048;-74
2022/08/23 12:24:12;;;;;;;5.50;3.40;;;32.90;58.00;;;;;;5015513;28;20076;-74
2022/08/23 12:26:44;;;;;;;18.25;4.10;;;32.70;57.10;;;;;;5031869;28;20139;-74
2022/08/23 12:29:31;;;;;;;29.08;4.60;;;32.90;59.70;;;;;;5031749;28;20119;-74
2022/08/23 12:32:26;;;;;;;5.68;3.38;;;33.20;56.50;;;;;;5031878;28;20080;-74
2022/08/23 12:35:21;;;;;;;4.78;3.10;;;33.30;54.70;;;;;;5026460;28;20485;-74
2022/08/23 12:38:17;;;;;;;5.97;3.40;;;33.50;56.70;;;;;;5031012;28;20530;-74
2022/08/23 12:40:46;;;;;;;6.28;3.33;;;33.40;54.70;;;;;;5031282;28;20087;-74
2022/08/23 12:43:12;;;;;;;6.07;3.05;;;33.70;56.20;;;;;;5031474;28;20541;-74
2022/08/23 12:45:45;;;;;;;5.70;2.60;;;34.10;55.90;;;;;;5030983;28;20129;-74
2022/08/23 12:48:13;;;;;;;4.35;3.25;;;34.40;52.40;;;;;;5031094;28;20041;-73
2022/08/23 12:50:44;;;;;;;3.25;2.95;;;34.70;53.40;;;;;;5031349;28;20076;-74
2022/08/23 12:53:24;;;;;;;4.80;2.78;;;34.90;53.10;;;;;;5031772;28;20039;-74
2022/08/23 12:55:57;;;;;;;4.47;2.97;;;35.10;52.40;;;;;;5031690;28;20080;-74
2022/08/23 12:58:30;;;;;;;3.15;2.85;;;35.80;53.40;;;;;;5031761;28;20049;-74
2022/08/23 13:00:59;;;;;;;6.18;3.10;;;36.00;50.10;;;;;;5030967;28;20046;-74
2022/08/23 13:03:38;;;;;;;4.53;3.05;;;36.10;50.60;;;;;;5028608;28;20478;-74
2022/08/23 13:06:08;;;;;;;3.17;2.80;;;34.80;48.10;;;;;;5030463;28;20041;-74
2022/08/23 13:08:57;;;;;;;8.43;3.28;;;34.40;49.20;;;;;;5031179;28;20045;-74
2022/08/23 13:11:28;;;;;;;4.53;2.80;;;34.10;49.10;;;;;;5039453;28;20469;-74
2022/08/23 13:13:54;;;;;;;5.70;3.00;;;33.90;51.40;;;;;;5031538;28;20090;-74